createdAt,value
2018-09-21T00:00:12.368Z,16.31
2018-09-21T00:01:12.352Z,16.41
2018-09-21T00:02:12.338Z,16.39
2018-09-21T00:03:12.319Z,16.39
2018-09-21T00:04:12.306Z,16.42
2018-09-21T00:05:12.288Z,16.46
2018-09-21T00:06:12.270Z,16.52
2018-09-21T00:07:12.256Z,16.53
2018-09-21T00:08:12.243Z,16.42
2018-09-21T00:09:12.230Z,16.35
2018-09-21T00:10:12.415Z,16.49
2018-09-21T00:11:12.194Z,16.31
2018-09-21T00:12:12.177Z,16.27
2018-09-21T00:13:12.161Z,16.27
2018-09-21T00:14:12.146Z,16.23
2018-09-21T00:15:12.128Z,16.17
2018-09-21T00:16:12.125Z,16.07
2018-09-21T00:17:12.100Z,16.15
2018-09-21T00:18:12.082Z,16.08
2018-09-21T00:19:12.065Z,16.11
2018-09-21T00:20:12.058Z,16.14
2018-09-21T00:21:12.030Z,16.14
2018-09-21T00:22:12.019Z,16.12
2018-09-21T00:23:12.002Z,16.14
2018-09-21T00:24:11.986Z,16.09
2018-09-21T00:25:11.966Z,16.09
2018-09-21T00:26:11.955Z,16.17
2018-09-21T00:27:11.945Z,16.17
2018-09-21T00:28:11.920Z,16.24
2018-09-21T00:29:11.906Z,16.21
2018-09-21T00:30:11.888Z,16.25
2018-09-21T00:31:11.874Z,16.27
2018-09-21T00:32:11.858Z,16.23
2018-09-21T00:33:11.841Z,16.17
2018-09-21T00:34:11.828Z,16.11
2018-09-21T00:35:11.804Z,16.12
2018-09-21T00:36:11.795Z,16.04
2018-09-21T00:37:11.777Z,16.14
2018-09-21T00:38:11.759Z,16.11
2018-09-21T00:39:11.740Z,16.07
2018-09-21T00:40:11.730Z,16.07
2018-09-21T00:41:11.713Z,15.94
2018-09-21T00:42:11.696Z,15.93
2018-09-21T00:43:11.676Z,16.00
2018-09-21T00:44:11.664Z,15.93
2018-09-21T00:45:11.650Z,15.92
2018-09-21T00:46:11.630Z,15.80
2018-09-21T00:47:11.619Z,16.01
2018-09-21T00:48:11.598Z,15.94
2018-09-21T00:49:11.582Z,15.94
2018-09-21T00:50:11.564Z,16.01
2018-09-21T00:51:11.557Z,15.94
2018-09-21T00:52:11.540Z,15.93
2018-09-21T00:53:11.517Z,15.90
2018-09-21T00:54:11.502Z,15.92
2018-09-21T00:55:11.484Z,15.97
2018-09-21T00:56:11.469Z,16.11
2018-09-21T00:57:11.461Z,16.11
2018-09-21T00:58:11.437Z,16.08
2018-09-21T00:59:11.420Z,16.09
2018-09-21T01:00:11.405Z,16.01
2018-09-21T01:01:11.386Z,16.00
2018-09-21T01:02:11.371Z,15.92
2018-09-21T01:03:11.358Z,15.89
2018-09-21T01:04:11.341Z,15.92
2018-09-21T01:05:11.322Z,16.04
2018-09-21T01:06:11.311Z,15.97
2018-09-21T01:07:11.286Z,15.89
2018-09-21T01:08:11.273Z,15.84
2018-09-21T01:09:11.257Z,15.72
2018-09-21T01:10:11.249Z,15.71
2018-09-21T01:11:11.230Z,15.57
2018-09-21T01:12:11.207Z,15.60
2018-09-21T01:13:11.191Z,15.59
2018-09-21T01:14:11.175Z,15.54
2018-09-21T01:15:11.156Z,15.57
2018-09-21T01:16:11.149Z,15.57
2018-09-21T01:17:11.125Z,15.65
2018-09-21T01:18:11.107Z,15.64
2018-09-21T01:19:11.093Z,15.65
2018-09-21T01:20:11.075Z,15.69
2018-09-21T01:21:11.059Z,15.69
2018-09-21T01:22:11.045Z,15.68
2018-09-21T01:23:11.069Z,15.68
2018-09-21T01:24:11.012Z,15.69
2018-09-21T01:25:10.995Z,15.71
2018-09-21T01:26:10.973Z,15.78
2018-09-21T01:27:10.960Z,15.69
2018-09-21T01:28:10.949Z,15.78
2018-09-21T01:29:10.931Z,15.71
2018-09-21T01:30:10.910Z,15.78
2018-09-21T01:31:10.902Z,15.75
2018-09-21T01:32:10.881Z,15.80
2018-09-21T01:33:11.365Z,15.82
2018-09-21T01:34:10.851Z,15.83
2018-09-21T01:35:10.830Z,15.94
2018-09-21T01:36:10.817Z,15.83
2018-09-21T01:37:10.799Z,15.89
2018-09-21T01:38:10.780Z,15.87
2018-09-21T01:39:10.767Z,15.90
2018-09-21T01:40:10.751Z,15.90
2018-09-21T01:41:10.735Z,15.97
2018-09-21T01:42:10.715Z,15.96
2018-09-21T01:43:10.702Z,15.92
2018-09-21T01:44:10.681Z,15.96
2018-09-21T01:45:10.666Z,15.94
2018-09-21T01:46:10.648Z,15.90
2018-09-21T01:47:10.632Z,15.84
2018-09-21T01:48:10.620Z,15.83
2018-09-21T01:49:10.601Z,15.86
2018-09-21T01:50:10.583Z,15.83
2018-09-21T01:51:10.572Z,15.87
2018-09-21T01:52:10.550Z,15.78
2018-09-21T01:53:10.535Z,15.75
2018-09-21T01:54:10.517Z,15.90
2018-09-21T01:55:10.503Z,15.75
2018-09-21T01:56:10.487Z,15.74
2018-09-21T01:57:10.464Z,15.89
2018-09-21T01:58:10.449Z,15.93
2018-09-21T01:59:10.435Z,15.90
2018-09-21T02:00:10.416Z,15.93
2018-09-21T02:01:10.407Z,15.93
2018-09-21T02:02:10.385Z,15.78
2018-09-21T02:03:10.365Z,15.92
2018-09-21T02:04:10.356Z,15.96
2018-09-21T02:05:10.339Z,15.96
2018-09-21T02:06:10.316Z,15.90
2018-09-21T02:07:10.307Z,15.84
2018-09-21T02:08:10.283Z,15.94
2018-09-21T02:09:10.265Z,15.90
2018-09-21T02:10:10.253Z,15.93
2018-09-21T02:11:10.233Z,16.04
2018-09-21T02:12:10.225Z,15.94
2018-09-21T02:13:10.197Z,15.93
2018-09-21T02:14:10.188Z,16.00
2018-09-21T02:15:10.171Z,16.00
2018-09-21T02:16:10.155Z,16.05
2018-09-21T02:17:10.139Z,16.11
2018-09-21T02:18:10.121Z,16.08
2018-09-21T02:19:10.105Z,16.07
2018-09-21T02:20:10.086Z,16.15
2018-09-21T02:21:10.071Z,16.17
2018-09-21T02:22:10.051Z,16.12
2018-09-21T02:23:10.034Z,16.12
2018-09-21T02:24:10.021Z,16.09
2018-09-21T02:25:10.003Z,16.09
2018-09-21T02:26:09.986Z,16.11
2018-09-21T02:27:09.968Z,16.11
2018-09-21T02:28:09.953Z,16.12
2018-09-21T02:29:09.933Z,16.14
2018-09-21T02:30:09.923Z,16.17
2018-09-21T02:31:09.905Z,16.21
2018-09-21T02:32:09.888Z,16.15
2018-09-21T02:33:09.870Z,16.17
2018-09-21T02:34:09.859Z,16.23
2018-09-21T02:35:09.836Z,16.17
2018-09-21T02:36:09.828Z,16.24
2018-09-21T02:37:09.809Z,16.25
2018-09-21T02:38:09.787Z,16.34
2018-09-21T02:39:09.769Z,16.35
2018-09-21T02:40:09.751Z,16.41
2018-09-21T02:41:09.739Z,16.43
2018-09-21T02:42:09.721Z,16.52
2018-09-21T02:43:09.709Z,16.56
2018-09-21T02:44:09.690Z,16.53
2018-09-21T02:45:09.675Z,16.56
2018-09-21T02:46:09.661Z,16.49
2018-09-21T02:47:09.642Z,16.66
2018-09-21T02:48:09.630Z,16.56
2018-09-21T02:49:09.608Z,16.67
2018-09-21T02:50:09.593Z,16.67
2018-09-21T02:51:09.572Z,16.76
2018-09-21T02:52:09.559Z,16.68
2018-09-21T02:53:09.539Z,16.63
2018-09-21T02:54:09.527Z,16.67
2018-09-21T02:55:09.514Z,16.79
2018-09-21T02:56:09.495Z,16.67
2018-09-21T02:57:09.475Z,16.71
2018-09-21T02:58:09.460Z,16.68
2018-09-21T02:59:09.453Z,16.79
2018-09-21T03:00:09.424Z,16.78
2018-09-21T03:01:09.412Z,16.88
2018-09-21T03:02:09.396Z,16.93
2018-09-21T03:03:09.378Z,16.93
2018-09-21T03:04:09.361Z,16.96
2018-09-21T03:05:09.345Z,16.97
2018-09-21T03:06:09.334Z,17.08
2018-09-21T03:07:09.313Z,17.14
2018-09-21T03:08:09.299Z,17.21
2018-09-21T03:09:09.285Z,17.16
2018-09-21T03:10:09.263Z,17.26
2018-09-21T03:11:09.241Z,17.31
2018-09-21T03:12:09.232Z,17.34
2018-09-21T03:13:09.250Z,17.34
2018-09-21T03:14:09.197Z,17.43
2018-09-21T03:15:09.180Z,17.41
2018-09-21T03:16:09.169Z,17.51
2018-09-21T03:17:09.151Z,17.51
2018-09-21T03:18:09.127Z,17.54
2018-09-21T03:19:09.120Z,17.63
2018-09-21T03:20:09.100Z,17.64
2018-09-21T03:21:09.081Z,17.58
2018-09-21T03:22:09.063Z,17.68
2018-09-21T03:23:09.046Z,17.68
2018-09-21T03:24:09.085Z,17.68
2018-09-21T03:25:09.013Z,17.70
2018-09-21T03:26:09.003Z,17.75
2018-09-21T03:27:08.987Z,17.71
2018-09-21T03:28:08.967Z,17.70
2018-09-21T03:29:08.960Z,17.81
2018-09-21T03:30:08.937Z,17.79
2018-09-21T03:31:08.919Z,17.78
2018-09-21T03:32:08.925Z,17.84
2018-09-21T03:33:08.889Z,17.86
2018-09-21T03:34:08.881Z,17.82
2018-09-21T03:35:08.863Z,17.82
2018-09-21T03:36:08.841Z,17.81
2018-09-21T03:37:08.824Z,17.86
2018-09-21T03:38:08.806Z,17.92
2018-09-21T03:39:08.804Z,17.95
2018-09-21T03:40:08.779Z,17.96
2018-09-21T03:41:08.760Z,18.00
2018-09-21T03:42:08.744Z,17.99
2018-09-21T03:43:08.735Z,18.08
2018-09-21T03:44:08.713Z,18.03
2018-09-21T03:45:08.699Z,18.07
2018-09-21T03:46:08.684Z,18.08
2018-09-21T03:47:08.665Z,18.03
2018-09-21T03:48:08.650Z,18.05
2018-09-21T03:49:08.633Z,18.08
2018-09-21T03:50:08.620Z,18.08
2018-09-21T03:51:08.603Z,18.08
2018-09-21T03:52:08.583Z,18.12
2018-09-21T03:53:08.571Z,18.08
2018-09-21T03:54:08.551Z,18.12
2018-09-21T03:55:08.539Z,18.17
2018-09-21T03:56:08.525Z,18.15
2018-09-21T03:57:08.510Z,18.20
2018-09-21T03:58:08.503Z,18.21
2018-09-21T03:59:08.482Z,18.17
2018-09-21T04:00:08.461Z,18.15
2018-09-21T04:01:08.497Z,18.17
2018-09-21T04:02:08.428Z,18.17
2018-09-21T04:03:08.412Z,18.14
2018-09-21T04:04:08.392Z,18.17
2018-09-21T04:05:08.382Z,18.25
2018-09-21T04:06:08.362Z,18.15
2018-09-21T04:07:08.345Z,18.15
2018-09-21T04:08:08.332Z,18.12
2018-09-21T04:09:08.315Z,18.12
2018-09-21T04:10:08.295Z,18.17
2018-09-21T04:11:08.294Z,18.15
2018-09-21T04:12:08.272Z,18.03
2018-09-21T04:13:08.257Z,18.08
2018-09-21T04:14:08.241Z,17.97
2018-09-21T04:15:08.228Z,18.00
2018-09-21T04:16:08.204Z,18.07
2018-09-21T04:17:08.188Z,17.96
2018-09-21T04:18:08.226Z,17.93
2018-09-21T04:19:08.158Z,17.99
2018-09-21T04:20:08.153Z,17.97
2018-09-21T04:21:08.124Z,17.99
2018-09-21T04:22:08.164Z,18.02
2018-09-21T04:23:08.145Z,17.96
2018-09-21T04:24:08.082Z,17.90
2018-09-21T04:25:08.066Z,17.96
2018-09-21T04:26:08.053Z,17.92
2018-09-21T04:27:08.033Z,17.90
2018-09-21T04:28:08.018Z,17.92
2018-09-21T04:29:08.000Z,17.97
2018-09-21T04:30:07.984Z,18.00
2018-09-21T04:31:07.968Z,17.99
2018-09-21T04:32:07.958Z,18.07
2018-09-21T04:33:07.938Z,18.03
2018-09-21T04:34:07.922Z,17.97
2018-09-21T04:35:07.909Z,18.02
2018-09-21T04:36:07.956Z,18.03
2018-09-21T04:37:07.875Z,18.02
2018-09-21T04:38:07.861Z,18.11
2018-09-21T04:39:07.845Z,18.10
2018-09-21T04:40:07.833Z,18.10
2018-09-21T04:41:07.818Z,18.10
2018-09-21T04:42:07.794Z,18.18
2018-09-21T04:43:07.780Z,18.14
2018-09-21T04:44:07.768Z,18.12
2018-09-21T04:45:07.750Z,18.20
2018-09-21T04:46:07.738Z,18.14
2018-09-21T04:47:07.722Z,18.27
2018-09-21T04:48:07.706Z,18.17
2018-09-21T04:49:07.692Z,18.25
2018-09-21T04:50:07.671Z,18.21
2018-09-21T04:51:07.663Z,18.20
2018-09-21T04:52:07.644Z,18.25
2018-09-21T04:53:07.631Z,18.18
2018-09-21T04:54:07.617Z,18.20
2018-09-21T04:55:07.601Z,18.23
2018-09-21T04:56:07.579Z,18.18
2018-09-21T04:57:07.568Z,18.21
2018-09-21T04:58:07.549Z,18.15
2018-09-21T04:59:07.532Z,18.15
2018-09-21T05:00:07.514Z,18.17
2018-09-21T05:01:07.502Z,18.15
2018-09-21T05:02:07.484Z,18.15
2018-09-21T05:03:07.468Z,18.17
2018-09-21T05:04:07.454Z,18.26
2018-09-21T05:05:07.442Z,18.27
2018-09-21T05:06:07.422Z,18.29
2018-09-21T05:07:07.408Z,18.25
2018-09-21T05:08:07.395Z,18.32
2018-09-21T05:09:07.382Z,18.27
2018-09-21T05:10:07.360Z,18.32
2018-09-21T05:11:07.342Z,18.25
2018-09-21T05:12:07.333Z,18.37
2018-09-21T05:13:07.316Z,18.32
2018-09-21T05:14:07.298Z,18.35
2018-09-21T05:15:07.281Z,18.35
2018-09-21T05:16:07.268Z,18.39
2018-09-21T05:17:07.252Z,18.36
2018-09-21T05:18:07.233Z,18.35
2018-09-21T05:19:07.222Z,18.29
2018-09-21T05:20:07.209Z,18.37
2018-09-21T05:21:07.186Z,18.32
2018-09-21T05:22:07.173Z,18.33
2018-09-21T05:23:07.160Z,18.33
2018-09-21T05:24:07.141Z,18.33
2018-09-21T05:25:07.144Z,18.35
2018-09-21T05:26:07.110Z,18.37
2018-09-21T05:27:07.101Z,18.37
2018-09-21T05:28:07.090Z,18.36
2018-09-21T05:29:07.062Z,18.48
2018-09-21T05:30:07.046Z,18.50
2018-09-21T05:31:07.037Z,18.51
2018-09-21T05:32:07.020Z,18.48
2018-09-21T05:33:07.005Z,18.58
2018-09-21T05:34:07.001Z,18.54
2018-09-21T05:35:07.037Z,18.73
2018-09-21T05:36:06.957Z,18.65
2018-09-21T05:37:06.942Z,18.70
2018-09-21T05:38:06.924Z,18.72
2018-09-21T05:39:06.912Z,18.76
2018-09-21T05:40:06.894Z,18.82
2018-09-21T05:41:06.877Z,18.80
2018-09-21T05:42:06.864Z,18.76
2018-09-21T05:43:06.846Z,18.94
2018-09-21T05:44:06.837Z,18.88
2018-09-21T05:45:06.816Z,18.88
2018-09-21T05:46:06.804Z,18.85
2018-09-21T05:47:06.787Z,18.95
2018-09-21T05:48:06.770Z,19.02
2018-09-21T05:49:06.753Z,19.06
2018-09-21T05:50:06.738Z,19.11
2018-09-21T05:51:06.722Z,19.16
2018-09-21T05:52:06.708Z,19.28
2018-09-21T05:53:06.700Z,19.29
2018-09-21T05:54:06.677Z,19.36
2018-09-21T05:55:06.662Z,19.36
2018-09-21T05:56:06.706Z,19.39
2018-09-21T05:57:06.632Z,19.44
2018-09-21T05:58:06.618Z,19.47
2018-09-21T05:59:06.610Z,19.55
2018-09-21T06:00:06.588Z,19.58
2018-09-21T06:01:06.581Z,19.55
2018-09-21T06:02:06.566Z,19.69
2018-09-21T06:03:06.544Z,19.73
2018-09-21T06:04:06.528Z,19.69
2018-09-21T06:05:06.514Z,19.76
2018-09-21T06:06:06.501Z,19.69
2018-09-21T06:07:06.481Z,19.81
2018-09-21T06:08:06.491Z,19.83
2018-09-21T06:09:06.454Z,19.83
2018-09-21T06:10:06.437Z,19.84
2018-09-21T06:11:06.422Z,19.78
2018-09-21T06:12:06.410Z,19.84
2018-09-21T06:13:06.402Z,19.88
2018-09-21T06:14:06.435Z,19.95
2018-09-21T06:15:06.369Z,19.95
2018-09-21T06:16:06.348Z,19.99
2018-09-21T06:17:06.336Z,19.98
2018-09-21T06:18:06.320Z,20.06
2018-09-21T06:19:06.305Z,20.08
2018-09-21T06:20:12.081Z,20.18
2018-09-21T06:21:06.307Z,20.18
2018-09-21T06:22:06.262Z,20.23
2018-09-21T06:23:06.332Z,20.21
2018-09-21T06:24:06.230Z,20.35
2018-09-21T06:25:06.221Z,20.32
2018-09-21T06:26:06.205Z,20.38
2018-09-21T06:27:06.186Z,20.38
2018-09-21T06:28:06.181Z,20.39
2018-09-21T06:29:06.156Z,20.52
2018-09-21T06:30:06.143Z,20.55
2018-09-21T06:31:06.125Z,20.54
2018-09-21T06:32:06.230Z,20.59
2018-09-21T06:33:06.104Z,20.76
2018-09-21T06:34:06.083Z,20.79
2018-09-21T06:35:06.070Z,20.87
2018-09-21T06:36:06.058Z,20.92
2018-09-21T06:37:06.038Z,20.97
2018-09-21T06:38:06.056Z,20.98
2018-09-21T06:39:06.014Z,20.98
2018-09-21T06:40:05.997Z,21.07
2018-09-21T06:41:06.052Z,21.13
2018-09-21T06:42:05.964Z,21.13
2018-09-21T06:43:05.954Z,21.25
2018-09-21T06:44:05.941Z,21.28
2018-09-21T06:45:05.926Z,21.32
2018-09-21T06:46:05.912Z,21.38
2018-09-21T06:47:05.894Z,21.47
2018-09-21T06:48:05.881Z,21.54
2018-09-21T06:49:05.870Z,21.59
2018-09-21T06:50:05.858Z,21.68
2018-09-21T06:51:05.840Z,21.82
2018-09-21T06:52:05.827Z,21.79
2018-09-21T06:53:05.813Z,21.94
2018-09-21T06:54:05.800Z,22.03
2018-09-21T06:55:05.785Z,22.07
2018-09-21T06:56:05.776Z,22.18
2018-09-21T06:57:05.759Z,22.25
2018-09-21T06:58:05.742Z,22.28
2018-09-21T06:59:05.734Z,22.35
2018-09-21T07:00:05.719Z,22.31
2018-09-21T07:01:05.702Z,22.49
2018-09-21T07:02:05.846Z,22.52
2018-09-21T07:03:05.675Z,22.64
2018-09-21T07:04:05.668Z,22.75
2018-09-21T07:05:05.646Z,22.77
2018-09-21T07:06:05.635Z,22.92
2018-09-21T07:07:05.631Z,23.07
2018-09-21T07:08:05.604Z,23.16
2018-09-21T07:09:05.593Z,23.28
2018-09-21T07:10:05.629Z,23.31
2018-09-21T07:11:05.576Z,23.43
2018-09-21T07:12:05.555Z,23.50
2018-09-21T07:13:05.538Z,23.66
2018-09-21T07:14:05.534Z,23.80
2018-09-21T07:15:05.516Z,23.94
2018-09-21T07:16:05.500Z,24.02
2018-09-21T07:17:05.489Z,24.03
2018-09-21T07:18:05.523Z,24.12
2018-09-21T07:19:05.462Z,24.15
2018-09-21T07:20:05.452Z,24.28
2018-09-21T07:21:05.438Z,24.32
2018-09-21T07:22:05.429Z,24.32
2018-09-21T07:23:05.415Z,24.52
2018-09-21T07:24:05.406Z,24.68
2018-09-21T07:25:05.389Z,24.76
2018-09-21T07:26:05.373Z,24.88
2018-09-21T07:27:05.363Z,24.99
2018-09-21T07:28:05.352Z,25.24
2018-09-21T07:29:05.344Z,25.43
2018-09-21T07:30:05.331Z,25.61
2018-09-21T07:31:05.366Z,25.73
2018-09-21T07:32:05.312Z,25.77
2018-09-21T07:33:05.291Z,25.67
2018-09-21T07:34:05.281Z,25.54
2018-09-21T07:35:05.268Z,25.55
2018-09-21T07:36:05.256Z,25.73
2018-09-21T07:37:05.250Z,25.60
2018-09-21T07:38:05.234Z,25.55
2018-09-21T07:39:05.224Z,25.33
2018-09-21T07:40:05.210Z,25.14
2018-09-21T07:41:05.207Z,25.00
2018-09-21T07:42:05.192Z,24.85
2018-09-21T07:43:05.326Z,24.77
2018-09-21T07:44:05.170Z,24.84
2018-09-21T07:45:05.163Z,24.88
2018-09-21T07:46:05.145Z,24.88
2018-09-21T07:47:05.137Z,24.84
2018-09-21T07:48:05.125Z,24.91
2018-09-21T07:49:05.186Z,25.00
2018-09-21T07:50:05.102Z,25.06
2018-09-21T07:51:05.087Z,25.17
2018-09-21T07:52:05.088Z,25.21
2018-09-21T07:53:05.062Z,25.23
2018-09-21T07:54:05.057Z,25.35
2018-09-21T07:55:05.044Z,25.47
2018-09-21T07:56:05.031Z,25.55
2018-09-21T07:57:05.026Z,25.58
2018-09-21T07:58:05.008Z,25.58
2018-09-21T07:59:04.996Z,25.67
2018-09-21T08:00:04.998Z,25.79
2018-09-21T08:01:04.987Z,26.02
2018-09-21T08:02:04.960Z,26.20
2018-09-21T08:03:04.962Z,26.47
2018-09-21T08:04:04.946Z,26.84
2018-09-21T08:05:04.972Z,27.18
2018-09-21T08:06:04.923Z,27.57
2018-09-21T08:07:04.931Z,28.03
2018-09-21T08:08:04.912Z,28.44
2018-09-21T08:09:04.892Z,28.74
2018-09-21T08:10:04.882Z,28.83
2018-09-21T08:11:04.872Z,29.04
2018-09-21T08:12:04.862Z,29.37
2018-09-21T08:13:04.856Z,29.53
2018-09-21T08:14:04.842Z,29.78
2018-09-21T08:15:04.834Z,30.00
2018-09-21T08:16:04.826Z,30.01
2018-09-21T08:17:04.818Z,30.02
2018-09-21T08:18:04.806Z,30.01
2018-09-21T08:19:04.800Z,30.01
2018-09-21T08:20:04.794Z,30.11
2018-09-21T08:21:04.782Z,30.20
2018-09-21T08:22:04.770Z,30.24
2018-09-21T08:23:04.764Z,30.42
2018-09-21T08:24:04.760Z,30.34
2018-09-21T08:25:04.775Z,30.32
2018-09-21T08:26:04.742Z,30.08
2018-09-21T08:27:04.733Z,29.98
2018-09-21T08:28:04.730Z,29.80
2018-09-21T08:29:04.722Z,29.63
2018-09-21T08:30:04.710Z,29.63
2018-09-21T08:31:04.705Z,29.41
2018-09-21T08:32:04.698Z,29.45
2018-09-21T08:33:04.736Z,29.33
2018-09-21T08:34:04.676Z,29.34
2018-09-21T08:35:04.672Z,29.31
2018-09-21T08:36:04.663Z,29.39
2018-09-21T08:37:04.717Z,29.37
2018-09-21T08:38:04.674Z,29.42
2018-09-21T08:39:04.644Z,29.51
2018-09-21T08:40:04.635Z,29.64
2018-09-21T08:41:04.632Z,29.78
2018-09-21T08:42:04.620Z,29.87
2018-09-21T08:43:04.615Z,29.87
2018-09-21T08:44:04.604Z,30.01
2018-09-21T08:45:04.598Z,30.16
2018-09-21T08:46:04.595Z,30.38
2018-09-21T08:47:04.582Z,30.61
2018-09-21T08:48:04.582Z,30.65
2018-09-21T08:49:04.570Z,30.54
2018-09-21T08:50:04.565Z,30.53
2018-09-21T08:51:04.552Z,30.55
2018-09-21T08:52:04.548Z,30.77
2018-09-21T08:53:04.539Z,30.92
2018-09-21T08:54:04.528Z,31.07
2018-09-21T08:55:04.556Z,30.97
2018-09-21T08:56:04.512Z,30.83
2018-09-21T08:57:04.510Z,30.79
2018-09-21T08:58:04.503Z,30.84
2018-09-21T08:59:04.492Z,30.89
2018-09-21T09:00:04.488Z,30.94
2018-09-21T09:01:04.480Z,30.92
2018-09-21T09:02:04.472Z,30.76
2018-09-21T09:03:04.541Z,30.64
2018-09-21T09:04:04.458Z,30.77
2018-09-21T09:05:04.450Z,31.04
2018-09-21T09:06:04.444Z,31.16
2018-09-21T09:07:04.432Z,31.25
2018-09-21T09:08:04.424Z,31.38
2018-09-21T09:09:04.420Z,31.35
2018-09-21T09:10:04.424Z,31.34
2018-09-21T09:11:04.405Z,31.34
2018-09-21T09:12:04.402Z,31.20
2018-09-21T09:13:04.392Z,31.32
2018-09-21T09:14:04.383Z,31.54
2018-09-21T09:15:04.379Z,31.68
2018-09-21T09:16:04.372Z,31.70
2018-09-21T09:17:04.362Z,31.80
2018-09-21T09:18:04.359Z,31.69
2018-09-21T09:19:04.350Z,31.69
2018-09-21T09:20:04.340Z,31.75
2018-09-21T09:21:04.332Z,31.88
2018-09-21T09:22:04.333Z,32.13
2018-09-21T09:23:04.366Z,32.21
2018-09-21T09:24:04.314Z,32.32
2018-09-21T09:25:04.378Z,32.43
2018-09-21T09:26:04.304Z,32.62
2018-09-21T09:27:04.293Z,32.50
2018-09-21T09:28:04.286Z,32.65
2018-09-21T09:29:04.280Z,32.67
2018-09-21T09:30:04.331Z,32.57
2018-09-21T09:31:04.267Z,32.57
2018-09-21T09:32:04.259Z,32.57
2018-09-21T09:33:04.253Z,32.57
2018-09-21T09:34:04.244Z,32.56
2018-09-21T09:35:04.237Z,32.60
2018-09-21T09:36:04.236Z,32.57
2018-09-21T09:37:04.227Z,32.55
2018-09-21T09:38:04.224Z,32.55
2018-09-21T09:39:04.214Z,32.37
2018-09-21T09:40:04.208Z,32.48
2018-09-21T09:41:04.205Z,32.56
2018-09-21T09:42:04.198Z,32.47
2018-09-21T09:43:04.358Z,32.67
2018-09-21T09:44:04.192Z,32.99
2018-09-21T09:45:04.176Z,33.11
2018-09-21T09:46:04.174Z,32.96
2018-09-21T09:47:04.160Z,33.18
2018-09-21T09:48:04.156Z,33.26
2018-09-21T09:49:04.276Z,33.18
2018-09-21T09:50:04.145Z,33.32
2018-09-21T09:51:04.140Z,33.19
2018-09-21T09:52:04.137Z,32.87
2018-09-21T09:53:04.128Z,32.70
2018-09-21T09:54:04.116Z,32.74
2018-09-21T09:55:04.112Z,32.81
2018-09-21T09:56:04.114Z,32.97
2018-09-21T09:57:04.107Z,32.87
2018-09-21T09:58:04.103Z,32.96
2018-09-21T09:59:04.091Z,33.12
2018-09-21T10:00:04.086Z,33.07
2018-09-21T10:01:04.116Z,33.26
2018-09-21T10:02:04.070Z,33.38
2018-09-21T10:03:04.068Z,33.49
2018-09-21T10:04:04.064Z,33.53
2018-09-21T10:05:04.062Z,33.51
2018-09-21T10:06:04.046Z,33.51
2018-09-21T10:07:04.046Z,33.49
2018-09-21T10:08:04.042Z,33.34
2018-09-21T10:09:04.034Z,33.04
2018-09-21T10:10:04.031Z,32.93
2018-09-21T10:11:04.021Z,32.93
2018-09-21T10:12:04.018Z,32.82
2018-09-21T10:13:04.014Z,32.77
2018-09-21T10:14:04.009Z,32.75
2018-09-21T10:15:04.005Z,32.62
2018-09-21T10:16:04.001Z,32.43
2018-09-21T10:17:04.001Z,32.04
2018-09-21T10:18:03.986Z,32.03
2018-09-21T10:19:03.984Z,32.11
2018-09-21T10:20:03.980Z,32.26
2018-09-21T10:21:03.968Z,32.55
2018-09-21T10:22:03.968Z,32.70
2018-09-21T10:23:03.959Z,32.57
2018-09-21T10:24:04.011Z,32.52
2018-09-21T10:25:03.951Z,32.47
2018-09-21T10:26:03.942Z,32.59
2018-09-21T10:27:03.963Z,32.69
2018-09-21T10:28:04.133Z,32.59
2018-09-21T10:29:03.925Z,32.41
2018-09-21T10:30:03.928Z,32.28
2018-09-21T10:31:03.921Z,32.13
2018-09-21T10:32:03.934Z,32.33
2018-09-21T10:33:03.908Z,32.56
2018-09-21T10:34:03.903Z,33.06
2018-09-21T10:35:03.900Z,33.37
2018-09-21T10:36:03.889Z,33.63
2018-09-21T10:37:03.959Z,33.84
2018-09-21T10:38:03.881Z,33.78
2018-09-21T10:39:03.957Z,33.63
2018-09-21T10:40:03.961Z,33.53
2018-09-21T10:41:03.874Z,33.44
2018-09-21T10:42:03.863Z,33.82
2018-09-21T10:43:03.936Z,33.82
2018-09-21T10:44:03.851Z,33.94
2018-09-21T10:45:03.851Z,33.98
2018-09-21T10:46:03.843Z,34.21
2018-09-21T10:47:03.836Z,33.98
2018-09-21T10:48:03.833Z,33.69
2018-09-21T10:49:03.836Z,33.14
2018-09-21T10:50:03.823Z,32.56
2018-09-21T10:51:03.816Z,32.29
2018-09-21T10:52:03.811Z,32.00
2018-09-21T10:53:03.814Z,32.04
2018-09-21T10:54:03.806Z,32.07
2018-09-21T10:55:03.797Z,32.04
2018-09-21T10:56:03.793Z,32.10
2018-09-21T10:57:03.793Z,32.33
2018-09-21T10:58:03.793Z,32.63
2018-09-21T10:59:03.780Z,33.00
2018-09-21T11:00:03.775Z,33.28
2018-09-21T11:01:03.790Z,33.54
2018-09-21T11:02:03.762Z,33.73
2018-09-21T11:03:03.757Z,33.72
2018-09-21T11:04:03.759Z,33.78
2018-09-21T11:05:03.755Z,33.78
2018-09-21T11:06:03.743Z,33.86
2018-09-21T11:07:03.777Z,33.78
2018-09-21T11:08:03.733Z,33.94
2018-09-21T11:09:03.731Z,33.86
2018-09-21T11:10:03.726Z,33.86
2018-09-21T11:11:03.717Z,34.17
2018-09-21T11:12:03.715Z,34.49
2018-09-21T11:13:03.824Z,34.80
2018-09-21T11:14:03.702Z,34.69
2018-09-21T11:15:03.707Z,34.91
2018-09-21T11:16:03.693Z,34.77
2018-09-21T11:17:03.690Z,34.66
2018-09-21T11:18:03.683Z,34.49
2018-09-21T11:19:03.681Z,34.06
2018-09-21T11:20:46.208Z,33.59
2018-09-21T11:21:46.225Z,33.29
2018-09-21T11:22:46.203Z,32.96
2018-09-21T11:23:46.197Z,32.82
2018-09-21T11:24:46.190Z,32.56
2018-09-21T11:25:46.191Z,32.41
2018-09-21T11:26:46.184Z,32.57
2018-09-21T11:27:46.177Z,33.06
2018-09-21T11:28:46.175Z,33.59
2018-09-21T11:29:46.175Z,34.12
2018-09-21T11:30:46.179Z,34.56
2018-09-21T11:31:46.163Z,34.96
2018-09-21T11:32:46.155Z,35.31
2018-09-21T11:33:46.151Z,35.59
2018-09-21T11:34:46.145Z,35.93
2018-09-21T11:35:46.143Z,36.05
2018-09-21T11:36:46.137Z,36.22
2018-09-21T11:37:46.149Z,36.32
2018-09-21T11:38:46.135Z,36.43
2018-09-21T11:39:46.125Z,36.73
2018-09-21T11:40:46.120Z,36.90
2018-09-21T11:41:46.115Z,36.94
2018-09-21T11:42:46.317Z,37.09
2018-09-21T11:43:46.108Z,37.15
2018-09-21T11:44:46.101Z,37.15
2018-09-21T11:45:46.099Z,37.47
2018-09-21T11:46:46.135Z,37.62
2018-09-21T11:47:46.121Z,37.64
2018-09-21T11:48:46.085Z,37.49
2018-09-21T11:49:46.085Z,37.40
2018-09-21T11:50:46.077Z,36.90
2018-09-21T11:51:46.081Z,36.98
2018-09-21T11:52:46.079Z,36.47
2018-09-21T11:53:46.071Z,36.28
2018-09-21T11:54:46.081Z,35.72
2018-09-21T11:55:46.063Z,35.53
2018-09-21T11:56:46.061Z,35.60
2018-09-21T11:57:46.057Z,36.09
2018-09-21T11:58:46.055Z,36.32
2018-09-21T11:59:46.050Z,36.31
2018-09-21T12:00:46.051Z,35.89
2018-09-21T12:01:46.067Z,35.26
2018-09-21T12:02:46.045Z,34.80
2018-09-21T12:03:46.037Z,34.77
2018-09-21T12:04:46.033Z,35.00
2018-09-21T12:05:46.032Z,35.26
2018-09-21T12:06:46.028Z,35.58
2018-09-21T12:07:46.027Z,35.21
2018-09-21T12:08:46.025Z,35.18
2018-09-21T12:09:46.013Z,34.81
2018-09-21T12:10:46.011Z,34.37
2018-09-21T12:11:46.005Z,34.00
2018-09-21T12:12:46.009Z,34.06
2018-09-21T12:13:45.997Z,34.21
2018-09-21T12:14:45.994Z,34.53
2018-09-21T12:15:45.995Z,34.88
2018-09-21T12:16:45.988Z,35.25
2018-09-21T12:17:45.981Z,35.44
2018-09-21T12:18:45.979Z,35.66
2018-09-21T12:19:45.977Z,35.93
2018-09-21T12:20:45.986Z,36.08
2018-09-21T12:21:45.969Z,35.52
2018-09-21T12:22:45.970Z,35.29
2018-09-21T12:23:45.955Z,35.21
2018-09-21T12:24:45.960Z,35.03
2018-09-21T12:25:45.951Z,34.85
2018-09-21T12:26:45.949Z,34.30
2018-09-21T12:27:45.945Z,34.00
2018-09-21T12:28:45.938Z,33.81
2018-09-21T12:29:45.938Z,33.65
2018-09-21T12:30:45.938Z,33.50
2018-09-21T12:32:06.613Z,33.29
2018-09-21T12:33:06.611Z,33.21
2018-09-21T12:34:06.602Z,32.93
2018-09-21T12:35:06.599Z,32.70
2018-09-21T12:36:06.678Z,32.56
2018-09-21T12:37:06.586Z,32.55
2018-09-21T12:38:06.583Z,32.32
2018-09-21T12:39:06.580Z,32.25
2018-09-21T12:40:06.573Z,32.03
2018-09-21T12:41:06.565Z,32.03
2018-09-21T12:42:06.559Z,32.07
2018-09-21T12:43:06.561Z,31.96
2018-09-21T12:44:06.554Z,31.99
2018-09-21T12:45:06.548Z,32.07
2018-09-21T12:46:06.545Z,32.26
2018-09-21T12:47:06.539Z,32.38
2018-09-21T12:48:06.534Z,32.45
2018-09-21T12:49:06.528Z,32.56
2018-09-21T12:50:06.519Z,32.59
2018-09-21T12:51:06.518Z,32.60
2018-09-21T12:52:06.557Z,32.63
2018-09-21T12:53:06.500Z,32.57